sensor_id;sensor_type;location;lat;lon;timestamp;temperature;humidity
5779;DHT22;2916;49.798;10.022;2023-02-24T00:01:55;8.80;99.90
5779;DHT22;2916;49.798;10.022;2023-02-24T00:04:26;8.80;99.90
5779;DHT22;2916;49.798;10.022;2023-02-24T00:06:54;8.70;99.90
5779;DHT22;2916;49.798;10.022;2023-02-24T00:09:23;8.80;99.90
5779;DHT22;2916;49.798;10.022;2023-02-24T00:11:53;8.80;99.90
5779;DHT22;2916;49.798;10.022;2023-02-24T00:14:22;8.70;99.90
5779;DHT22;2916;49.798;10.022;2023-02-24T00:16:50;8.70;99.90
5779;DHT22;2916;49.798;10.022;2023-02-24T00:19:20;8.70;99.90
5779;DHT22;2916;49.798;10.022;2023-02-24T00:21:48;8.60;99.90
5779;DHT22;2916;49.798;10.022;2023-02-24T00:24:16;8.60;99.90
5779;DHT22;2916;49.798;10.022;2023-02-24T00:26:44;8.60;99.90
5779;DHT22;2916;49.798;10.022;2023-02-24T00:29:12;8.60;99.90
5779;DHT22;2916;49.798;10.022;2023-02-24T00:31:39;8.50;99.90
5779;DHT22;2916;49.798;10.022;2023-02-24T00:34:08;8.50;99.90
5779;DHT22;2916;49.798;10.022;2023-02-24T00:36:37;8.50;99.90
5779;DHT22;2916;49.798;10.022;2023-02-24T00:39:06;8.50;99.90
5779;DHT22;2916;49.798;10.022;2023-02-24T00:41:35;8.50;99.90
5779;DHT22;2916;49.798;10.022;2023-02-24T00:44:05;8.40;99.90
5779;DHT22;2916;49.798;10.022;2023-02-24T00:46:35;8.50;99.90
5779;DHT22;2916;49.798;10.022;2023-02-24T00:49:04;8.50;99.90
5779;DHT22;2916;49.798;10.022;2023-02-24T00:51:34;8.50;99.90
5779;DHT22;2916;49.798;10.022;2023-02-24T00:54:02;8.40;99.90
5779;DHT22;2916;49.798;10.022;2023-02-24T00:56:30;8.40;99.90
5779;DHT22;2916;49.798;10.022;2023-02-24T00:58:59;8.40;99.90
5779;DHT22;2916;49.798;10.022;2023-02-24T01:01:28;8.40;99.90
5779;DHT22;2916;49.798;10.022;2023-02-24T01:03:56;8.40;99.90
5779;DHT22;2916;49.798;10.022;2023-02-24T01:06:25;8.40;99.90
5779;DHT22;2916;49.798;10.022;2023-02-24T01:08:54;8.40;99.90
5779;DHT22;2916;49.798;10.022;2023-02-24T01:11:23;8.40;99.90
5779;DHT22;2916;49.798;10.022;2023-02-24T01:14:18;8.40;99.90
5779;DHT22;2916;49.798;10.022;2023-02-24T01:16:47;8.40;99.90
5779;DHT22;2916;49.798;10.022;2023-02-24T01:19:15;8.40;99.90
5779;DHT22;2916;49.798;10.022;2023-02-24T01:21:42;8.40;99.90
5779;DHT22;2916;49.798;10.022;2023-02-24T01:24:10;8.40;99.90
5779;DHT22;2916;49.798;10.022;2023-02-24T01:26:38;8.40;99.90
5779;DHT22;2916;49.798;10.022;2023-02-24T01:29:05;8.30;99.90
5779;DHT22;2916;49.798;10.022;2023-02-24T01:31:34;8.30;99.90
5779;DHT22;2916;49.798;10.022;2023-02-24T01:34:04;8.30;99.90
5779;DHT22;2916;49.798;10.022;2023-02-24T01:36:32;8.40;99.90
5779;DHT22;2916;49.798;10.022;2023-02-24T01:38:59;8.30;99.90
5779;DHT22;2916;49.798;10.022;2023-02-24T01:41:27;8.30;99.90
5779;DHT22;2916;49.798;10.022;2023-02-24T01:43:58;8.30;99.90
5779;DHT22;2916;49.798;10.022;2023-02-24T01:46:27;8.30;99.90
5779;DHT22;2916;49.798;10.022;2023-02-24T01:48:57;8.30;99.90
5779;DHT22;2916;49.798;10.022;2023-02-24T01:51:29;8.30;99.90
5779;DHT22;2916;49.798;10.022;2023-02-24T01:54:00;8.30;99.90
5779;DHT22;2916;49.798;10.022;2023-02-24T01:56:30;8.30;99.90
5779;DHT22;2916;49.798;10.022;2023-02-24T01:58:58;8.30;99.90
5779;DHT22;2916;49.798;10.022;2023-02-24T02:01:26;8.30;99.90
5779;DHT22;2916;49.798;10.022;2023-02-24T02:03:58;8.30;99.90
5779;DHT22;2916;49.798;10.022;2023-02-24T02:06:29;8.30;99.90
5779;DHT22;2916;49.798;10.022;2023-02-24T02:08:57;8.30;99.90
5779;DHT22;2916;49.798;10.022;2023-02-24T02:11:24;8.20;99.90
5779;DHT22;2916;49.798;10.022;2023-02-24T02:13:52;8.30;99.90
5779;DHT22;2916;49.798;10.022;2023-02-24T02:19:41;8.20;99.90
5779;DHT22;2916;49.798;10.022;2023-02-24T02:22:24;8.20;99.90
5779;DHT22;2916;49.798;10.022;2023-02-24T02:24:56;8.20;99.90
5779;DHT22;2916;49.798;10.022;2023-02-24T02:27:55;8.20;99.90
5779;DHT22;2916;49.798;10.022;2023-02-24T02:34:08;8.10;99.90
5779;DHT22;2916;49.798;10.022;2023-02-24T02:36:43;8.20;99.90
5779;DHT22;2916;49.798;10.022;2023-02-24T02:39:15;8.20;99.90
5779;DHT22;2916;49.798;10.022;2023-02-24T02:41:51;8.10;99.90
5779;DHT22;2916;49.798;10.022;2023-02-24T02:44:22;8.10;99.90
5779;DHT22;2916;49.798;10.022;2023-02-24T02:46:57;8.10;99.90
5779;DHT22;2916;49.798;10.022;2023-02-24T02:49:30;8.10;99.90
5779;DHT22;2916;49.798;10.022;2023-02-24T02:52:03;8.10;99.90
5779;DHT22;2916;49.798;10.022;2023-02-24T02:54:37;8.10;99.90
5779;DHT22;2916;49.798;10.022;2023-02-24T02:57:08;8.10;99.90
5779;DHT22;2916;49.798;10.022;2023-02-24T02:59:41;8.10;99.90
5779;DHT22;2916;49.798;10.022;2023-02-24T03:02:10;8.10;99.90
5779;DHT22;2916;49.798;10.022;2023-02-24T03:04:47;8.00;99.90
5779;DHT22;2916;49.798;10.022;2023-02-24T03:07:18;8.00;99.90
5779;DHT22;2916;49.798;10.022;2023-02-24T03:09:48;8.00;99.90
5779;DHT22;2916;49.798;10.022;2023-02-24T03:12:19;8.00;99.90
5779;DHT22;2916;49.798;10.022;2023-02-24T03:14:50;8.00;99.90
5779;DHT22;2916;49.798;10.022;2023-02-24T03:17:21;7.90;99.90
5779;DHT22;2916;49.798;10.022;2023-02-24T03:19:57;7.90;99.90
5779;DHT22;2916;49.798;10.022;2023-02-24T03:22:31;7.90;99.90
5779;DHT22;2916;49.798;10.022;2023-02-24T03:25:00;7.90;99.90
5779;DHT22;2916;49.798;10.022;2023-02-24T03:27:33;7.90;99.90
5779;DHT22;2916;49.798;10.022;2023-02-24T03:30:08;7.90;99.90
5779;DHT22;2916;49.798;10.022;2023-02-24T03:32:40;7.90;99.90
5779;DHT22;2916;49.798;10.022;2023-02-24T03:35:21;7.90;99.90
5779;DHT22;2916;49.798;10.022;2023-02-24T03:37:49;7.90;99.90
5779;DHT22;2916;49.798;10.022;2023-02-24T03:40:20;7.90;99.90
5779;DHT22;2916;49.798;10.022;2023-02-24T03:42:57;8.00;99.90
5779;DHT22;2916;49.798;10.022;2023-02-24T03:45:30;8.00;99.90
5779;DHT22;2916;49.798;10.022;2023-02-24T03:47:59;7.90;99.90
5779;DHT22;2916;49.798;10.022;2023-02-24T03:50:29;8.00;99.90
5779;DHT22;2916;49.798;10.022;2023-02-24T03:53:07;7.90;99.90
5779;DHT22;2916;49.798;10.022;2023-02-24T03:55:45;7.90;99.90
5779;DHT22;2916;49.798;10.022;2023-02-24T03:58:29;8.00;99.90
5779;DHT22;2916;49.798;10.022;2023-02-24T04:01:08;7.90;99.90
5779;DHT22;2916;49.798;10.022;2023-02-24T04:03:45;8.00;99.90
5779;DHT22;2916;49.798;10.022;2023-02-24T04:06:19;7.90;99.90
5779;DHT22;2916;49.798;10.022;2023-02-24T04:08:50;7.90;99.90
5779;DHT22;2916;49.798;10.022;2023-02-24T04:11:23;7.80;99.90
5779;DHT22;2916;49.798;10.022;2023-02-24T04:13:57;7.80;99.90
5779;DHT22;2916;49.798;10.022;2023-02-24T04:16:34;7.90;99.90
5779;DHT22;2916;49.798;10.022;2023-02-24T04:19:10;7.80;99.90
5779;DHT22;2916;49.798;10.022;2023-02-24T04:21:42;7.80;99.90
5779;DHT22;2916;49.798;10.022;2023-02-24T04:24:11;7.80;99.90
5779;DHT22;2916;49.798;10.022;2023-02-24T04:26:44;7.70;99.90
5779;DHT22;2916;49.798;10.022;2023-02-24T04:29:16;7.70;99.90
5779;DHT22;2916;49.798;10.022;2023-02-24T04:31:48;7.80;99.90
5779;DHT22;2916;49.798;10.022;2023-02-24T04:34:16;7.70;99.90
5779;DHT22;2916;49.798;10.022;2023-02-24T04:36:46;7.60;99.90
5779;DHT22;2916;49.798;10.022;2023-02-24T04:39:15;7.60;99.90
5779;DHT22;2916;49.798;10.022;2023-02-24T04:41:44;7.70;99.90
5779;DHT22;2916;49.798;10.022;2023-02-24T04:44:14;7.70;99.90
5779;DHT22;2916;49.798;10.022;2023-02-24T04:46:42;7.70;99.90
5779;DHT22;2916;49.798;10.022;2023-02-24T04:49:09;7.70;99.90
5779;DHT22;2916;49.798;10.022;2023-02-24T04:51:36;7.60;99.90
5779;DHT22;2916;49.798;10.022;2023-02-24T04:54:08;7.60;99.90
5779;DHT22;2916;49.798;10.022;2023-02-24T04:56:38;7.60;99.90
5779;DHT22;2916;49.798;10.022;2023-02-24T04:59:06;7.60;99.90
5779;DHT22;2916;49.798;10.022;2023-02-24T05:01:34;7.50;99.90
5779;DHT22;2916;49.798;10.022;2023-02-24T05:04:04;7.50;99.90
5779;DHT22;2916;49.798;10.022;2023-02-24T05:06:31;7.50;99.90
5779;DHT22;2916;49.798;10.022;2023-02-24T05:08:59;7.50;99.90
5779;DHT22;2916;49.798;10.022;2023-02-24T05:11:36;7.50;99.90
5779;DHT22;2916;49.798;10.022;2023-02-24T05:14:07;7.50;99.90
5779;DHT22;2916;49.798;10.022;2023-02-24T05:16:34;7.50;99.90
5779;DHT22;2916;49.798;10.022;2023-02-24T05:19:02;7.40;99.90
5779;DHT22;2916;49.798;10.022;2023-02-24T05:22:01;7.50;99.90
5779;DHT22;2916;49.798;10.022;2023-02-24T05:24:30;7.40;99.90
5779;DHT22;2916;49.798;10.022;2023-02-24T05:26:59;7.40;99.90
5779;DHT22;2916;49.798;10.022;2023-02-24T05:29:30;7.40;99.90
5779;DHT22;2916;49.798;10.022;2023-02-24T05:31:58;7.40;99.90
5779;DHT22;2916;49.798;10.022;2023-02-24T05:34:26;7.40;99.90
5779;DHT22;2916;49.798;10.022;2023-02-24T05:36:55;7.40;99.90
5779;DHT22;2916;49.798;10.022;2023-02-24T05:39:23;7.30;99.90
5779;DHT22;2916;49.798;10.022;2023-02-24T05:41:54;7.40;99.90
5779;DHT22;2916;49.798;10.022;2023-02-24T05:44:24;7.40;99.90
5779;DHT22;2916;49.798;10.022;2023-02-24T05:46:53;7.30;99.90
5779;DHT22;2916;49.798;10.022;2023-02-24T05:49:24;7.40;99.90
5779;DHT22;2916;49.798;10.022;2023-02-24T05:51:53;7.40;99.90
5779;DHT22;2916;49.798;10.022;2023-02-24T05:54:22;7.40;99.90
5779;DHT22;2916;49.798;10.022;2023-02-24T05:56:50;7.40;99.90
5779;DHT22;2916;49.798;10.022;2023-02-24T05:59:17;7.30;99.90
5779;DHT22;2916;49.798;10.022;2023-02-24T06:01:48;7.40;99.90
5779;DHT22;2916;49.798;10.022;2023-02-24T06:04:18;7.30;99.90
5779;DHT22;2916;49.798;10.022;2023-02-24T06:07:04;7.30;99.90
5779;DHT22;2916;49.798;10.022;2023-02-24T06:09:31;7.40;99.90
5779;DHT22;2916;49.798;10.022;2023-02-24T06:11:59;7.40;99.90
5779;DHT22;2916;49.798;10.022;2023-02-24T06:14:27;7.30;99.90
5779;DHT22;2916;49.798;10.022;2023-02-24T06:16:55;7.30;99.90
5779;DHT22;2916;49.798;10.022;2023-02-24T06:19:22;7.30;99.90
5779;DHT22;2916;49.798;10.022;2023-02-24T06:21:49;7.30;99.90
5779;DHT22;2916;49.798;10.022;2023-02-24T06:24:17;7.20;99.90
5779;DHT22;2916;49.798;10.022;2023-02-24T06:26:44;7.20;99.90
5779;DHT22;2916;49.798;10.022;2023-02-24T06:29:15;7.20;99.90
5779;DHT22;2916;49.798;10.022;2023-02-24T06:31:43;7.30;99.90
5779;DHT22;2916;49.798;10.022;2023-02-24T06:34:14;7.20;99.90
5779;DHT22;2916;49.798;10.022;2023-02-24T06:36:42;7.20;99.90
5779;DHT22;2916;49.798;10.022;2023-02-24T06:39:11;7.40;99.90
5779;DHT22;2916;49.798;10.022;2023-02-24T06:41:39;7.30;99.90
5779;DHT22;2916;49.798;10.022;2023-02-24T06:44:07;7.30;99.90
5779;DHT22;2916;49.798;10.022;2023-02-24T06:46:35;7.20;99.90
5779;DHT22;2916;49.798;10.022;2023-02-24T06:49:02;7.30;99.90
5779;DHT22;2916;49.798;10.022;2023-02-24T06:51:30;7.30;99.90
5779;DHT22;2916;49.798;10.022;2023-02-24T06:53:58;7.30;99.90
5779;DHT22;2916;49.798;10.022;2023-02-24T06:56:27;7.30;99.90
5779;DHT22;2916;49.798;10.022;2023-02-24T06:58:54;7.40;99.90
5779;DHT22;2916;49.798;10.022;2023-02-24T07:01:25;7.40;99.90
5779;DHT22;2916;49.798;10.022;2023-02-24T07:03:55;7.40;99.90
5779;DHT22;2916;49.798;10.022;2023-02-24T07:06:45;7.40;99.90
5779;DHT22;2916;49.798;10.022;2023-02-24T07:09:16;7.40;99.90
5779;DHT22;2916;49.798;10.022;2023-02-24T07:11:46;7.40;99.90
5779;DHT22;2916;49.798;10.022;2023-02-24T07:14:17;7.60;99.90
5779;DHT22;2916;49.798;10.022;2023-02-24T07:16:44;7.40;99.90
5779;DHT22;2916;49.798;10.022;2023-02-24T07:19:13;7.50;99.90
5779;DHT22;2916;49.798;10.022;2023-02-24T07:21:42;7.50;99.90
5779;DHT22;2916;49.798;10.022;2023-02-24T07:24:15;7.50;99.90
5779;DHT22;2916;49.798;10.022;2023-02-24T07:26:54;7.50;99.90
5779;DHT22;2916;49.798;10.022;2023-02-24T07:29:22;7.60;99.90
5779;DHT22;2916;49.798;10.022;2023-02-24T07:31:50;7.60;99.90
5779;DHT22;2916;49.798;10.022;2023-02-24T07:34:21;7.60;99.90
5779;DHT22;2916;49.798;10.022;2023-02-24T07:36:51;7.60;99.90
5779;DHT22;2916;49.798;10.022;2023-02-24T07:39:20;7.60;99.90
5779;DHT22;2916;49.798;10.022;2023-02-24T07:41:48;7.70;99.90
5779;DHT22;2916;49.798;10.022;2023-02-24T07:44:17;7.60;99.90
5779;DHT22;2916;49.798;10.022;2023-02-24T07:46:45;7.70;99.90
5779;DHT22;2916;49.798;10.022;2023-02-24T07:49:14;7.80;99.90
5779;DHT22;2916;49.798;10.022;2023-02-24T07:51:43;7.80;99.90
5779;DHT22;2916;49.798;10.022;2023-02-24T07:54:13;7.80;99.90
5779;DHT22;2916;49.798;10.022;2023-02-24T07:56:41;7.80;99.90
5779;DHT22;2916;49.798;10.022;2023-02-24T07:59:13;7.90;99.90
5779;DHT22;2916;49.798;10.022;2023-02-24T08:01:43;7.90;99.90
5779;DHT22;2916;49.798;10.022;2023-02-24T08:04:17;7.90;99.90
5779;DHT22;2916;49.798;10.022;2023-02-24T08:06:47;7.90;99.90
5779;DHT22;2916;49.798;10.022;2023-02-24T08:09:23;7.90;99.90
5779;DHT22;2916;49.798;10.022;2023-02-24T08:12:04;7.90;99.90
5779;DHT22;2916;49.798;10.022;2023-02-24T08:14:33;7.90;99.90
5779;DHT22;2916;49.798;10.022;2023-02-24T08:17:10;7.90;99.90
5779;DHT22;2916;49.798;10.022;2023-02-24T08:19:37;8.10;99.90
5779;DHT22;2916;49.798;10.022;2023-02-24T08:22:07;8.00;99.90
5779;DHT22;2916;49.798;10.022;2023-02-24T08:24:46;8.00;99.90
5779;DHT22;2916;49.798;10.022;2023-02-24T08:27:15;8.00;99.90
5779;DHT22;2916;49.798;10.022;2023-02-24T08:29:48;8.10;99.90
5779;DHT22;2916;49.798;10.022;2023-02-24T08:32:28;8.10;99.90
5779;DHT22;2916;49.798;10.022;2023-02-24T08:34:59;8.10;99.90
5779;DHT22;2916;49.798;10.022;2023-02-24T08:37:28;8.20;99.90
5779;DHT22;2916;49.798;10.022;2023-02-24T08:40:07;8.10;99.90
5779;DHT22;2916;49.798;10.022;2023-02-24T08:42:54;8.10;99.90
5779;DHT22;2916;49.798;10.022;2023-02-24T08:45:23;8.10;99.90
5779;DHT22;2916;49.798;10.022;2023-02-24T08:47:51;8.10;99.90
5779;DHT22;2916;49.798;10.022;2023-02-24T08:50:25;8.20;99.90
5779;DHT22;2916;49.798;10.022;2023-02-24T08:52:55;8.20;99.90
5779;DHT22;2916;49.798;10.022;2023-02-24T08:55:24;8.30;99.90
5779;DHT22;2916;49.798;10.022;2023-02-24T08:57:55;8.30;99.90
5779;DHT22;2916;49.798;10.022;2023-02-24T09:00:26;8.30;99.90
5779;DHT22;2916;49.798;10.022;2023-02-24T09:03:13;8.30;99.90
5779;DHT22;2916;49.798;10.022;2023-02-24T09:05:56;8.30;99.90
5779;DHT22;2916;49.798;10.022;2023-02-24T09:08:23;8.40;99.90
5779;DHT22;2916;49.798;10.022;2023-02-24T09:10:59;8.50;99.90
5779;DHT22;2916;49.798;10.022;2023-02-24T09:13:26;8.60;99.90
5779;DHT22;2916;49.798;10.022;2023-02-24T09:15:59;8.60;99.90
5779;DHT22;2916;49.798;10.022;2023-02-24T09:18:27;8.60;99.90
5779;DHT22;2916;49.798;10.022;2023-02-24T09:21:07;8.70;99.90
5779;DHT22;2916;49.798;10.022;2023-02-24T09:23:52;8.80;99.90
5779;DHT22;2916;49.798;10.022;2023-02-24T09:26:20;8.80;99.90
5779;DHT22;2916;49.798;10.022;2023-02-24T09:28:47;8.80;99.90
5779;DHT22;2916;49.798;10.022;2023-02-24T09:31:19;8.80;99.90
5779;DHT22;2916;49.798;10.022;2023-02-24T09:33:48;8.90;99.90
5779;DHT22;2916;49.798;10.022;2023-02-24T09:36:18;8.80;99.90
5779;DHT22;2916;49.798;10.022;2023-02-24T09:38:54;8.80;99.90
5779;DHT22;2916;49.798;10.022;2023-02-24T09:41:42;8.90;99.90
5779;DHT22;2916;49.798;10.022;2023-02-24T09:44:32;9.00;99.90
5779;DHT22;2916;49.798;10.022;2023-02-24T09:47:05;9.10;99.90
5779;DHT22;2916;49.798;10.022;2023-02-24T09:49:43;9.20;99.90
5779;DHT22;2916;49.798;10.022;2023-02-24T09:52:13;9.30;99.90
5779;DHT22;2916;49.798;10.022;2023-02-24T09:54:44;9.10;99.90
5779;DHT22;2916;49.798;10.022;2023-02-24T09:57:45;9.30;99.90
5779;DHT22;2916;49.798;10.022;2023-02-24T10:00:32;9.40;99.90
5779;DHT22;2916;49.798;10.022;2023-02-24T10:03:12;9.50;99.90
5779;DHT22;2916;49.798;10.022;2023-02-24T10:05:51;9.50;99.90
5779;DHT22;2916;49.798;10.022;2023-02-24T10:08:31;9.50;99.90
5779;DHT22;2916;49.798;10.022;2023-02-24T10:10:59;9.60;99.90
5779;DHT22;2916;49.798;10.022;2023-02-24T10:13:36;9.80;99.90
5779;DHT22;2916;49.798;10.022;2023-02-24T10:16:10;9.90;99.90
5779;DHT22;2916;49.798;10.022;2023-02-24T10:18:44;9.80;99.90
5779;DHT22;2916;49.798;10.022;2023-02-24T10:21:21;10.00;99.90
5779;DHT22;2916;49.798;10.022;2023-02-24T10:24:03;9.90;99.90
5779;DHT22;2916;49.798;10.022;2023-02-24T10:26:37;10.00;99.90
5779;DHT22;2916;49.798;10.022;2023-02-24T10:29:20;10.00;99.90
5779;DHT22;2916;49.798;10.022;2023-02-24T10:32:07;10.00;99.90
5779;DHT22;2916;49.798;10.022;2023-02-24T10:34:41;10.20;99.90
5779;DHT22;2916;49.798;10.022;2023-02-24T10:37:11;10.30;99.90
5779;DHT22;2916;49.798;10.022;2023-02-24T10:39:39;10.40;99.90
5779;DHT22;2916;49.798;10.022;2023-02-24T10:42:09;10.30;99.90
5779;DHT22;2916;49.798;10.022;2023-02-24T10:44:44;10.30;99.90
5779;DHT22;2916;49.798;10.022;2023-02-24T10:47:19;10.10;99.90
5779;DHT22;2916;49.798;10.022;2023-02-24T10:49:57;10.20;99.90
5779;DHT22;2916;49.798;10.022;2023-02-24T10:52:27;10.40;99.90
5779;DHT22;2916;49.798;10.022;2023-02-24T10:55:22;10.50;99.90
5779;DHT22;2916;49.798;10.022;2023-02-24T10:58:14;10.70;99.90
5779;DHT22;2916;49.798;10.022;2023-02-24T11:00:55;10.60;99.90
5779;DHT22;2916;49.798;10.022;2023-02-24T11:03:38;10.60;99.90
5779;DHT22;2916;49.798;10.022;2023-02-24T11:06:19;10.50;99.90
5779;DHT22;2916;49.798;10.022;2023-02-24T11:09:14;10.40;99.90
5779;DHT22;2916;49.798;10.022;2023-02-24T11:11:58;10.40;99.90
5779;DHT22;2916;49.798;10.022;2023-02-24T11:14:48;10.70;99.90
5779;DHT22;2916;49.798;10.022;2023-02-24T11:17:35;10.60;99.90
5779;DHT22;2916;49.798;10.022;2023-02-24T11:20:10;10.60;99.90
5779;DHT22;2916;49.798;10.022;2023-02-24T11:22:43;10.70;99.90
5779;DHT22;2916;49.798;10.022;2023-02-24T11:25:24;10.60;99.90
5779;DHT22;2916;49.798;10.022;2023-02-24T11:27:54;10.50;90.10
5779;DHT22;2916;49.798;10.022;2023-02-24T11:30:29;10.50;72.10
5779;DHT22;2916;49.798;10.022;2023-02-24T11:33:17;10.70;85.00
5779;DHT22;2916;49.798;10.022;2023-02-24T11:35:53;10.70;61.10
5779;DHT22;2916;49.798;10.022;2023-02-24T11:38:28;10.70;61.20
5779;DHT22;2916;49.798;10.022;2023-02-24T11:41:04;10.80;59.10
5779;DHT22;2916;49.798;10.022;2023-02-24T11:43:35;10.80;56.30
5779;DHT22;2916;49.798;10.022;2023-02-24T11:46:08;11.00;52.10
5779;DHT22;2916;49.798;10.022;2023-02-24T11:48:40;11.10;47.20
5779;DHT22;2916;49.798;10.022;2023-02-24T11:51:11;11.10;39.00
5779;DHT22;2916;49.798;10.022;2023-02-24T11:53:44;11.00;40.50
5779;DHT22;2916;49.798;10.022;2023-02-24T11:56:15;11.00;36.40
5779;DHT22;2916;49.798;10.022;2023-02-24T11:58:49;11.10;38.90
5779;DHT22;2916;49.798;10.022;2023-02-24T12:01:21;11.10;39.30
5779;DHT22;2916;49.798;10.022;2023-02-24T12:03:58;11.10;31.30
5779;DHT22;2916;49.798;10.022;2023-02-24T12:06:32;11.10;40.10
5779;DHT22;2916;49.798;10.022;2023-02-24T12:09:06;11.10;37.10
5779;DHT22;2916;49.798;10.022;2023-02-24T12:11:41;11.40;42.00
5779;DHT22;2916;49.798;10.022;2023-02-24T12:14:20;11.40;28.40
5779;DHT22;2916;49.798;10.022;2023-02-24T12:16:51;11.30;30.60
5779;DHT22;2916;49.798;10.022;2023-02-24T12:19:26;11.30;37.80
5779;DHT22;2916;49.798;10.022;2023-02-24T12:22:00;11.20;33.40
5779;DHT22;2916;49.798;10.022;2023-02-24T12:24:30;11.00;28.50
5779;DHT22;2916;49.798;10.022;2023-02-24T12:27:03;10.90;32.70
5779;DHT22;2916;49.798;10.022;2023-02-24T12:29:52;10.90;31.60
5779;DHT22;2916;49.798;10.022;2023-02-24T12:32:31;10.80;30.60
5779;DHT22;2916;49.798;10.022;2023-02-24T12:35:10;10.80;26.80
5779;DHT22;2916;49.798;10.022;2023-02-24T12:37:55;10.90;37.40
5779;DHT22;2916;49.798;10.022;2023-02-24T12:40:31;10.90;32.10
5779;DHT22;2916;49.798;10.022;2023-02-24T12:43:11;11.00;36.00
5779;DHT22;2916;49.798;10.022;2023-02-24T12:45:49;11.10;27.50
5779;DHT22;2916;49.798;10.022;2023-02-24T12:48:31;10.90;27.90
5779;DHT22;2916;49.798;10.022;2023-02-24T12:51:06;10.90;23.20
5779;DHT22;2916;49.798;10.022;2023-02-24T12:53:40;10.80;20.70
5779;DHT22;2916;49.798;10.022;2023-02-24T12:56:16;10.80;19.50
5779;DHT22;2916;49.798;10.022;2023-02-24T12:58:46;11.00;24.30
5779;DHT22;2916;49.798;10.022;2023-02-24T13:01:20;11.10;25.30
5779;DHT22;2916;49.798;10.022;2023-02-24T13:04:19;11.20;20.50
5779;DHT22;2916;49.798;10.022;2023-02-24T13:06:59;11.20;20.50
5779;DHT22;2916;49.798;10.022;2023-02-24T13:09:38;11.10;19.70
5779;DHT22;2916;49.798;10.022;2023-02-24T13:12:13;11.10;16.00
5779;DHT22;2916;49.798;10.022;2023-02-24T13:14:42;10.90;10.80
5779;DHT22;2916;49.798;10.022;2023-02-24T13:17:20;10.80;11.80
5779;DHT22;2916;49.798;10.022;2023-02-24T13:19:48;10.90;13.00
5779;DHT22;2916;49.798;10.022;2023-02-24T13:22:26;11.10;12.50
5779;DHT22;2916;49.798;10.022;2023-02-24T13:25:13;11.00;11.00
5779;DHT22;2916;49.798;10.022;2023-02-24T13:27:52;10.90;8.60
5779;DHT22;2916;49.798;10.022;2023-02-24T13:30:26;10.90;9.90
5779;DHT22;2916;49.798;10.022;2023-02-24T13:33:03;11.00;10.00
5779;DHT22;2916;49.798;10.022;2023-02-24T13:35:33;11.20;11.70
5779;DHT22;2916;49.798;10.022;2023-02-24T13:38:21;11.00;6.00
5779;DHT22;2916;49.798;10.022;2023-02-24T13:40:48;11.00;3.10
5779;DHT22;2916;49.798;10.022;2023-02-24T13:43:25;10.80;1.80
5779;DHT22;2916;49.798;10.022;2023-02-24T13:45:57;10.80;4.10
5779;DHT22;2916;49.798;10.022;2023-02-24T13:48:46;10.70;2.90
5779;DHT22;2916;49.798;10.022;2023-02-24T13:55:02;10.80;2.90
5779;DHT22;2916;49.798;10.022;2023-02-24T13:57:49;10.80;1.00
5779;DHT22;2916;49.798;10.022;2023-02-24T14:00:27;10.70;2.90
5779;DHT22;2916;49.798;10.022;2023-02-24T14:02:57;10.60;1.00
5779;DHT22;2916;49.798;10.022;2023-02-24T14:05:27;10.80;1.00
5779;DHT22;2916;49.798;10.022;2023-02-24T14:07:56;10.80;1.00
5779;DHT22;2916;49.798;10.022;2023-02-24T14:10:26;10.60;1.00
5779;DHT22;2916;49.798;10.022;2023-02-24T14:13:00;10.50;1.00
5779;DHT22;2916;49.798;10.022;2023-02-24T14:15:29;10.50;1.00
5779;DHT22;2916;49.798;10.022;2023-02-24T14:17:57;10.60;1.00
5779;DHT22;2916;49.798;10.022;2023-02-24T14:20:26;10.60;1.00
5779;DHT22;2916;49.798;10.022;2023-02-24T14:22:56;10.60;2.30
5779;DHT22;2916;49.798;10.022;2023-02-24T14:25:27;10.70;1.80
5779;DHT22;2916;49.798;10.022;2023-02-24T14:27:55;10.60;1.00
5779;DHT22;2916;49.798;10.022;2023-02-24T14:30:26;10.60;1.00
5779;DHT22;2916;49.798;10.022;2023-02-24T14:32:55;10.60;1.00
5779;DHT22;2916;49.798;10.022;2023-02-24T14:35:30;10.70;1.00
5779;DHT22;2916;49.798;10.022;2023-02-24T14:37:58;10.50;1.00
5779;DHT22;2916;49.798;10.022;2023-02-24T14:40:26;10.50;1.00
5779;DHT22;2916;49.798;10.022;2023-02-24T14:42:54;10.40;1.00
5779;DHT22;2916;49.798;10.022;2023-02-24T14:45:24;10.30;1.00
5779;DHT22;2916;49.798;10.022;2023-02-24T14:47:52;10.30;1.00
5779;DHT22;2916;49.798;10.022;2023-02-24T14:50:23;10.20;1.00
5779;DHT22;2916;49.798;10.022;2023-02-24T14:52:55;10.20;1.00
5779;DHT22;2916;49.798;10.022;2023-02-24T14:55:29;10.20;1.00
5779;DHT22;2916;49.798;10.022;2023-02-24T14:58:00;10.30;1.00
5779;DHT22;2916;49.798;10.022;2023-02-24T15:00:31;10.20;1.00
5779;DHT22;2916;49.798;10.022;2023-02-24T15:03:04;10.10;1.00
5779;DHT22;2916;49.798;10.022;2023-02-24T15:05:32;10.10;1.00
5779;DHT22;2916;49.798;10.022;2023-02-24T15:08:00;10.00;1.00
5779;DHT22;2916;49.798;10.022;2023-02-24T15:10:30;10.10;1.00
5779;DHT22;2916;49.798;10.022;2023-02-24T15:13:03;10.10;1.00
5779;DHT22;2916;49.798;10.022;2023-02-24T15:15:35;10.00;1.00
5779;DHT22;2916;49.798;10.022;2023-02-24T15:18:10;10.00;1.00
5779;DHT22;2916;49.798;10.022;2023-02-24T15:20:38;10.00;1.00
5779;DHT22;2916;49.798;10.022;2023-02-24T15:23:24;10.00;1.00
5779;DHT22;2916;49.798;10.022;2023-02-24T15:25:53;10.00;1.00
5779;DHT22;2916;49.798;10.022;2023-02-24T15:28:22;10.00;1.00
5779;DHT22;2916;49.798;10.022;2023-02-24T15:31:01;10.00;1.00
5779;DHT22;2916;49.798;10.022;2023-02-24T15:33:33;9.90;1.00
5779;DHT22;2916;49.798;10.022;2023-02-24T15:36:05;9.90;1.00
5779;DHT22;2916;49.798;10.022;2023-02-24T15:38:36;9.80;1.00
5779;DHT22;2916;49.798;10.022;2023-02-24T15:41:07;9.80;1.00
5779;DHT22;2916;49.798;10.022;2023-02-24T15:43:36;9.80;1.00
5779;DHT22;2916;49.798;10.022;2023-02-24T15:46:14;9.80;1.00
5779;DHT22;2916;49.798;10.022;2023-02-24T15:48:42;9.70;1.00
5779;DHT22;2916;49.798;10.022;2023-02-24T15:51:20;9.70;1.00
5779;DHT22;2916;49.798;10.022;2023-02-24T15:53:47;9.70;1.00
5779;DHT22;2916;49.798;10.022;2023-02-24T15:56:16;9.60;1.00
5779;DHT22;2916;49.798;10.022;2023-02-24T15:58:43;9.70;1.00
5779;DHT22;2916;49.798;10.022;2023-02-24T16:01:11;9.70;1.00
5779;DHT22;2916;49.798;10.022;2023-02-24T16:03:38;9.60;1.00
5779;DHT22;2916;49.798;10.022;2023-02-24T16:06:06;9.50;1.00
5779;DHT22;2916;49.798;10.022;2023-02-24T16:08:38;9.50;1.00
5779;DHT22;2916;49.798;10.022;2023-02-24T16:11:09;9.40;1.00
5779;DHT22;2916;49.798;10.022;2023-02-24T16:13:38;9.40;1.00
5779;DHT22;2916;49.798;10.022;2023-02-24T16:16:06;9.40;1.00
5779;DHT22;2916;49.798;10.022;2023-02-24T16:18:36;9.30;1.00
5779;DHT22;2916;49.798;10.022;2023-02-24T16:21:03;9.30;1.00
5779;DHT22;2916;49.798;10.022;2023-02-24T16:23:31;9.20;1.10
5779;DHT22;2916;49.798;10.022;2023-02-24T16:26:03;9.20;3.10
5779;DHT22;2916;49.798;10.022;2023-02-24T16:28:31;9.10;1.00
5779;DHT22;2916;49.798;10.022;2023-02-24T16:30:59;9.10;1.30
5779;DHT22;2916;49.798;10.022;2023-02-24T16:33:27;9.00;1.00
5779;DHT22;2916;49.798;10.022;2023-02-24T16:35:54;9.00;1.00
5779;DHT22;2916;49.798;10.022;2023-02-24T16:38:22;9.00;1.00
5779;DHT22;2916;49.798;10.022;2023-02-24T16:40:52;8.90;1.30
5779;DHT22;2916;49.798;10.022;2023-02-24T16:43:19;8.90;1.00
5779;DHT22;2916;49.798;10.022;2023-02-24T16:45:46;8.80;1.00